Time;durP1;ratioP1;P1;durP2;ratioP2;P2;SDS_P1;SDS_P2;PMS_P1;PMS_P2;Temp;Humidity;BMP_temperature;BMP_pressure;BME280_temperature;BME280_humidity;BME280_pressure;Samples;Min_cycle;Max_cycle;Signal;HPM_P1;HPM_P2
2020/12/05 12:06:32;;;;;;;13.13;8.45;;;384.00;1484.80;;;;;;5068633;28;20379;-82
2020/12/05 12:08:58;;;;;;;12.68;8.07;;;384.40;1433.60;;;;;;5053311;28;20032;-80
2020/12/05 12:15:15;;;;;;;14.18;8.90;;;359.30;1459.20;;;;;;5091300;27;20362;-80
2020/12/05 12:17:41;;;;;;;15.80;8.77;;;359.00;1484.80;;;;;;5090349;28;20107;-80
2020/12/05 12:20:07;;;;;;;19.00;10.05;;;358.70;1510.40;;;;;;5056119;28;20082;-81
2020/12/05 12:22:33;;;;;;;21.17;9.75;;;358.60;1510.40;;;;;;5073026;28;20028;-82
2020/12/05 12:24:59;;;;;;;13.73;9.48;;;358.60;1510.40;;;;;;5072879;28;20039;-78
2020/12/05 12:30:47;;;;;;;17.75;9.48;;;358.50;1536.00;;;;;;5085579;28;20389;-79
2020/12/05 12:33:13;;;;;;;21.08;11.07;;;358.50;1561.60;;;;;;5080583;28;20366;-79
2020/12/05 12:35:39;;;;;;;20.70;11.95;;;358.40;1561.60;;;;;;5086671;28;20094;-79
2020/12/05 12:38:13;;;;;;;23.17;10.65;;;333.70;1587.20;;;;;;5091003;28;20034;-80
2020/12/05 12:40:39;;;;;;;26.10;13.50;;;333.60;1612.80;;;;;;5088077;28;20117;-80
2020/12/05 12:43:05;;;;;;;18.50;11.75;;;333.50;1612.80;;;;;;5089440;28;20032;-80
2020/12/05 12:45:32;;;;;;;15.20;10.20;;;333.50;1612.80;;;;;;5090569;28;20016;-80
2020/12/05 12:50:24;;;;;;;21.90;12.65;;;333.30;1638.40;;;;;;5089735;28;20485;-79
2020/12/05 12:52:50;;;;;;;22.65;11.70;;;333.30;1638.40;;;;;;5089137;28;20047;-80
2020/12/05 12:55:15;;;;;;;18.08;10.57;;;333.30;1638.40;;;;;;5088223;28;20085;-79
2020/12/05 12:57:41;;;;;;;17.92;10.85;;;333.30;1638.40;;;;;;5088951;28;20087;-79
2020/12/05 13:00:07;;;;;;;20.50;12.38;;;333.20;1638.40;;;;;;5089336;28;20036;-81
2020/12/05 13:02:33;;;;;;;17.23;11.32;;;333.30;1638.40;;;;;;5090718;28;20031;-81
2020/12/05 13:05:00;;;;;;;20.85;11.98;;;333.20;1638.40;;;;;;5089833;28;20392;-81
2020/12/05 13:07:26;;;;;;;19.83;11.38;;;333.20;1638.40;;;;;;5089165;28;20028;-82
2020/12/05 13:09:53;;;;;;;16.23;9.60;;;333.20;1638.40;;;;;;5089423;28;20016;-83
2020/12/05 13:12:19;;;;;;;16.85;11.63;;;333.10;1638.40;;;;;;5089825;28;20393;-84
2020/12/05 13:14:44;;;;;;;19.05;11.60;;;333.10;1664.00;;;;;;5087523;28;20047;-83
2020/12/05 13:17:10;;;;;;;24.80;14.05;;;333.10;1664.00;;;;;;5089889;28;20047;-80
2020/12/05 13:19:36;;;;;;;25.40;13.73;;;333.00;1664.00;;;;;;5089568;28;20024;-79
2020/12/05 13:22:02;;;;;;;25.40;15.18;;;333.00;1689.60;;;;;;5089198;28;20016;-80
2020/12/05 13:24:27;;;;;;;21.27;12.20;;;333.00;1689.60;;;;;;5086869;28;20025;-80
2020/12/05 13:26:53;;;;;;;19.30;11.52;;;332.90;1689.60;;;;;;5075773;28;20082;-80
2020/12/05 13:29:19;;;;;;;16.20;10.23;;;332.90;1689.60;;;;;;5074565;28;20481;-80
2020/12/05 13:31:44;;;;;;;17.00;11.43;;;332.80;1715.20;;;;;;5075638;28;20024;-80
2020/12/05 13:34:10;;;;;;;19.20;10.82;;;308.10;1689.60;;;;;;5075810;28;20043;-81
2020/12/05 13:36:36;;;;;;;21.63;12.55;;;308.10;1689.60;;;;;;5075938;28;20029;-79
2020/12/05 13:39:02;;;;;;;21.33;13.52;;;308.00;1689.60;;;;;;5075409;28;20416;-80
2020/12/05 13:41:29;;;;;;;24.80;13.93;;;307.90;1715.20;;;;;;5075844;28;20024;-80
2020/12/05 13:43:59;;;;;;;41.58;24.85;;;307.90;1715.20;;;;;;5076942;28;20039;-80
2020/12/05 13:46:25;;;;;;;32.90;17.92;;;307.80;1715.20;;;;;;5076899;28;20449;-80
2020/12/05 13:48:51;;;;;;;19.33;12.95;;;307.80;1715.20;;;;;;5075750;28;20039;-80
2020/12/05 13:51:17;;;;;;;19.98;12.93;;;307.70;1715.20;;;;;;5075931;28;20017;-85
2020/12/05 13:53:42;;;;;;;21.20;13.35;;;307.60;1740.80;;;;;;5075922;28;20059;-80
2020/12/05 13:56:08;;;;;;;27.50;14.95;;;307.60;1740.80;;;;;;5077118;28;20025;-81
2020/12/05 13:58:34;;;;;;;28.48;11.43;;;307.50;1740.80;;;;;;5076540;28;20094;-80
2020/12/05 14:01:01;;;;;;;18.55;11.30;;;307.40;1740.80;;;;;;5076925;28;20104;-81
2020/12/05 14:03:27;;;;;;;20.35;12.50;;;307.40;1740.80;;;;;;5076754;28;20039;-80
2020/12/05 14:05:53;;;;;;;18.05;10.75;;;307.30;1766.40;;;;;;5074206;28;20033;-79
2020/12/05 14:08:19;;;;;;;21.08;13.30;;;307.20;1766.40;;;;;;5071347;28;20386;-79
2020/12/05 14:10:44;;;;;;;27.13;13.10;;;307.20;1766.40;;;;;;5074949;28;20040;-80
2020/12/05 14:13:10;;;;;;;21.80;12.98;;;307.20;1766.40;;;;;;5074259;28;20067;-79
2020/12/05 14:15:36;;;;;;;19.35;12.57;;;282.50;1766.40;;;;;;5074911;28;20044;-80
2020/12/05 14:18:01;;;;;;;25.23;13.68;;;282.50;1766.40;;;;;;5075635;28;20020;-81
2020/12/05 14:20:27;;;;;;;27.27;14.15;;;282.40;1766.40;;;;;;5074538;28;20024;-80
2020/12/05 14:22:53;;;;;;;22.63;13.48;;;282.40;1766.40;;;;;;5074958;28;20505;-80
2020/12/05 14:25:18;;;;;;;21.63;13.68;;;282.30;1766.40;;;;;;5074707;28;20115;-80
2020/12/05 14:27:45;;;;;;;20.45;13.18;;;282.30;1792.00;;;;;;5075242;28;20427;-79
2020/12/05 14:30:13;;;;;;;31.13;18.92;;;282.30;1766.40;;;;;;5074598;28;20025;-80
2020/12/05 14:32:39;;;;;;;31.58;18.27;;;282.20;1766.40;;;;;;5075595;28;20415;-80
2020/12/05 14:35:06;;;;;;;36.47;17.25;;;282.20;1792.00;;;;;;5073826;28;20046;-79
2020/12/05 14:37:31;;;;;;;25.90;15.90;;;282.10;1792.00;;;;;;5072817;28;20029;-79
2020/12/05 14:39:57;;;;;;;47.67;23.90;;;282.10;1792.00;;;;;;5074844;28;20032;-79
2020/12/05 14:42:23;;;;;;;35.53;18.73;;;282.10;1792.00;;;;;;5073756;28;20016;-80
2020/12/05 14:44:48;;;;;;;27.52;15.15;;;282.00;1792.00;;;;;;5073852;28;20115;-80
2020/12/05 14:47:14;;;;;;;29.83;16.10;;;281.90;1817.60;;;;;;5074191;28;20029;-80
2020/12/05 14:49:40;;;;;;;29.20;16.13;;;281.90;1817.60;;;;;;5075065;28;20363;-80
2020/12/05 14:52:06;;;;;;;26.08;14.90;;;281.80;1817.60;;;;;;5074405;28;20461;-77
2020/12/05 14:54:31;;;;;;;24.33;14.23;;;281.80;1817.60;;;;;;5074875;28;20032;-79
2020/12/05 14:56:57;;;;;;;22.38;12.77;;;281.70;1843.20;;;;;;5074692;28;20051;-85
2020/12/05 14:59:23;;;;;;;32.33;14.73;;;281.70;1843.20;;;;;;5073295;28;20123;-85
2020/12/05 15:01:51;;;;;;;72.60;15.43;;;281.60;1843.20;;;;;;5073425;28;20029;-87
2020/12/05 15:04:16;;;;;;;45.33;16.30;;;281.60;1843.20;;;;;;5074748;28;20055;-85
2020/12/05 18:02:57;;;;;;;42.00;21.67;;;205.70;2176.00;;;;;;5097723;27;1191063;-78
2020/12/05 18:05:23;;;;;;;36.47;20.65;;;205.70;2176.00;;;;;;5118742;28;20031;-78
2020/12/05 18:07:49;;;;;;;43.30;22.75;;;205.70;2176.00;;;;;;5131414;27;20031;-83
2020/12/05 18:10:17;;;;;;;38.30;20.92;;;205.70;2176.00;;;;;;5122969;28;20034;-82
2020/12/05 18:12:43;;;;;;;39.67;21.85;;;230.50;2150.40;;;;;;5126638;28;20465;-78
2020/12/05 18:15:09;;;;;;;37.58;21.88;;;230.50;2150.40;;;;;;5131005;28;20020;-78
2020/12/05 18:17:34;;;;;;;37.72;22.48;;;230.60;2150.40;;;;;;5120462;27;20059;-79
2020/12/05 18:20:00;;;;;;;42.75;24.60;;;230.60;2124.80;;;;;;5125669;28;20028;-79
2020/12/05 18:22:27;;;;;;;41.72;23.52;;;230.70;2124.80;;;;;;5131338;28;20036;-79
2020/12/05 18:24:53;;;;;;;52.25;28.05;;;230.70;2124.80;;;;;;5127149;28;20369;-78
2020/12/05 18:27:20;;;;;;;61.33;31.00;;;230.70;2124.80;;;;;;5130668;28;20031;-79
2020/12/05 18:29:45;;;;;;;41.30;24.02;;;230.70;2124.80;;;;;;5129789;27;20035;-81
2020/12/05 18:32:11;;;;;;;49.10;25.70;;;230.70;2124.80;;;;;;5130259;27;20019;-79
2020/12/05 18:34:37;;;;;;;37.50;24.58;;;230.80;2124.80;;;;;;5129757;28;20065;-77
2020/12/05 18:37:02;;;;;;;39.72;23.42;;;230.80;2124.80;;;;;;5129446;28;20126;-80
2020/12/05 18:39:28;;;;;;;37.05;21.77;;;230.80;2099.20;;;;;;5129826;28;20036;-78
2020/12/05 18:41:55;;;;;;;44.60;25.63;;;230.80;2124.80;;;;;;5131227;27;20039;-77
2020/12/05 18:44:21;;;;;;;39.20;23.58;;;230.80;2124.80;;;;;;5130540;28;20419;-78
2020/12/05 18:46:47;;;;;;;40.67;23.95;;;230.90;2099.20;;;;;;5130684;28;20085;-77
2020/12/05 18:49:14;;;;;;;38.22;22.70;;;230.90;2099.20;;;;;;5129252;28;20436;-78
2020/12/05 18:51:39;;;;;;;36.55;20.65;;;230.90;2124.80;;;;;;5131390;27;20469;-78
2020/12/05 18:54:06;;;;;;;37.28;23.00;;;230.90;2124.80;;;;;;5130048;28;20038;-78
2020/12/05 18:56:35;;;;;;;45.70;25.38;;;230.90;2099.20;;;;;;5131791;27;20031;-79
2020/12/05 18:59:00;;;;;;;39.05;23.98;;;230.90;2099.20;;;;;;5131420;27;20028;-78
2020/12/05 19:01:27;;;;;;;37.92;22.58;;;230.90;2099.20;;;;;;5126867;28;20395;-77
2020/12/05 19:03:56;;;;;;;44.92;25.25;;;230.90;2124.80;;;;;;5110526;28;20032;-79
2020/12/05 19:06:24;;;;;;;53.03;28.63;;;230.90;2124.80;;;;;;5118167;28;20368;-79
2020/12/05 19:08:50;;;;;;;46.80;25.58;;;230.90;2124.80;;;;;;5131271;28;20129;-79
2020/12/05 19:17:26;;;;;;;44.85;24.85;;;230.90;2124.80;;;;;;5097080;28;20035;-78
2020/12/05 19:19:52;;;;;;;44.13;24.13;;;230.90;2124.80;;;;;;5097109;28;20024;-78
2020/12/05 19:22:18;;;;;;;37.30;21.60;;;231.00;2124.80;;;;;;5114389;28;20395;-79
2020/12/05 19:24:44;;;;;;;40.13;23.30;;;231.00;2124.80;;;;;;5116324;28;20028;-79
2020/12/05 19:27:10;;;;;;;38.72;21.20;;;231.00;2124.80;;;;;;5116314;28;20504;-80
2020/12/05 19:29:36;;;;;;;41.47;24.02;;;231.00;2124.80;;;;;;5116154;28;20032;-79
2020/12/05 19:32:01;;;;;;;45.90;25.48;;;231.10;2124.80;;;;;;5115655;28;20028;-77
2020/12/05 19:34:27;;;;;;;50.35;25.95;;;231.10;2124.80;;;;;;5115444;28;20054;-79
2020/12/05 19:36:53;;;;;;;35.75;21.58;;;231.10;2124.80;;;;;;5115446;28;20036;-77
2020/12/05 19:39:19;;;;;;;33.85;21.73;;;231.10;2124.80;;;;;;5116922;28;20038;-78
2020/12/05 19:41:44;;;;;;;38.53;22.20;;;231.10;2124.80;;;;;;5117010;28;20035;-78
2020/12/05 19:44:10;;;;;;;35.00;21.40;;;231.10;2124.80;;;;;;5116574;28;20468;-78
2020/12/05 19:46:36;;;;;;;32.85;20.95;;;231.10;2124.80;;;;;;5116545;28;20030;-79
2020/12/05 19:49:02;;;;;;;33.33;20.73;;;231.10;2124.80;;;;;;5117144;28;20023;-80
2020/12/05 19:51:27;;;;;;;36.30;20.40;;;231.10;2124.80;;;;;;5117258;28;20027;-78
2020/12/05 19:53:53;;;;;;;33.97;20.88;;;231.10;2124.80;;;;;;5117341;28;20016;-79
2020/12/05 19:56:19;;;;;;;32.22;19.77;;;231.10;2124.80;;;;;;5116705;28;20427;-80
2020/12/05 20:02:07;;;;;;;33.88;20.75;;;231.20;2124.80;;;;;;5116076;28;20100;-79
2020/12/05 20:04:33;;;;;;;41.75;22.83;;;231.10;2124.80;;;;;;5117840;28;20035;-79
2020/12/05 20:06:59;;;;;;;42.33;22.67;;;231.10;2124.80;;;;;;5115210;28;20024;-79
2020/12/05 20:09:25;;;;;;;37.67;21.45;;;231.10;2124.80;;;;;;5116471;28;20060;-78
2020/12/05 20:11:51;;;;;;;34.13;21.08;;;231.10;2150.40;;;;;;5114797;28;20122;-80
2020/12/05 20:14:17;;;;;;;40.03;22.48;;;231.10;2150.40;;;;;;5116208;28;20024;-81
2020/12/05 20:16:44;;;;;;;33.45;20.55;;;231.10;2150.40;;;;;;5115956;28;20377;-79
2020/12/05 20:19:11;;;;;;;34.05;21.13;;;231.10;2150.40;;;;;;5113604;28;20028;-78
2020/12/05 20:21:37;;;;;;;34.08;21.15;;;231.10;2150.40;;;;;;5115982;28;20039;-79
2020/12/05 20:24:03;;;;;;;37.80;20.70;;;231.20;2150.40;;;;;;5115448;28;20426;-79
2020/12/05 20:26:28;;;;;;;37.50;21.88;;;231.20;2150.40;;;;;;5114386;28;20042;-79
2020/12/05 20:28:54;;;;;;;34.22;21.50;;;231.20;2124.80;;;;;;5113533;28;20900;-79
2020/12/05 20:31:20;;;;;;;33.20;21.13;;;231.20;2150.40;;;;;;5113180;28;20622;-80
2020/12/05 20:33:48;;;;;;;35.33;21.52;;;231.20;2124.80;;;;;;5114409;28;20070;-79
2020/12/05 20:36:22;;;;;;;34.13;20.67;;;231.20;2150.40;;;;;;5112864;28;20047;-80
2020/12/05 20:38:48;;;;;;;34.13;20.88;;;231.20;2150.40;;;;;;5115047;28;20031;-79
2020/12/05 20:41:18;;;;;;;38.30;22.42;;;231.20;2150.40;;;;;;5114306;28;20076;-80
2020/12/05 20:43:45;;;;;;;35.08;21.20;;;231.20;2150.40;;;;;;5106485;28;20090;-80
2020/12/05 20:46:11;;;;;;;41.05;23.25;;;231.20;2150.40;;;;;;5114709;28;20031;-80
2020/12/05 20:48:37;;;;;;;34.40;20.42;;;231.20;2150.40;;;;;;5114216;28;20031;-81
2020/12/05 20:51:04;;;;;;;32.92;19.95;;;231.20;2150.40;;;;;;5116147;28;20401;-80
2020/12/05 20:53:30;;;;;;;33.17;19.85;;;231.20;2150.40;;;;;;5114575;28;20020;-78
2020/12/05 20:55:55;;;;;;;32.28;20.20;;;231.20;2124.80;;;;;;5114218;28;20050;-80
2020/12/05 20:58:23;;;;;;;32.28;20.65;;;231.20;2150.40;;;;;;5113894;28;20038;-77
2020/12/05 21:00:49;;;;;;;27.83;18.63;;;231.20;2150.40;;;;;;5112599;28;20050;-80
2020/12/05 21:03:15;;;;;;;30.00;18.02;;;231.20;2150.40;;;;;;5116085;28;20019;-80
2020/12/05 21:05:41;;;;;;;29.55;18.45;;;231.20;2150.40;;;;;;5113034;27;20020;-78
2020/12/05 21:08:06;;;;;;;35.30;19.30;;;231.30;2124.80;;;;;;5113329;28;20035;-80
2020/12/05 21:10:32;;;;;;;30.35;18.65;;;231.30;2124.80;;;;;;5115088;28;20020;-81
2020/12/05 21:12:58;;;;;;;28.48;18.27;;;231.30;2124.80;;;;;;5113930;28;20023;-78
2020/12/05 21:15:24;;;;;;;28.35;17.85;;;231.20;2124.80;;;;;;5110740;28;20075;-79
2020/12/05 21:17:49;;;;;;;29.95;18.35;;;231.20;2124.80;;;;;;5114322;28;20027;-79
2020/12/05 21:20:15;;;;;;;32.55;19.27;;;231.20;2124.80;;;;;;5112007;28;20039;-79
2020/12/05 21:22:41;;;;;;;34.97;20.88;;;231.20;2124.80;;;;;;5115411;28;20028;-79
2020/12/05 21:25:08;;;;;;;31.77;18.90;;;231.10;2124.80;;;;;;5112837;28;20077;-80
2020/12/05 21:27:33;;;;;;;28.15;16.20;;;231.20;2124.80;;;;;;5114056;28;20430;-80
2020/12/05 21:29:59;;;;;;;28.77;17.23;;;231.10;2150.40;;;;;;5111505;28;20035;-78
2020/12/05 21:32:25;;;;;;;24.63;16.80;;;231.20;2124.80;;;;;;5113845;28;20531;-79
2020/12/05 21:34:51;;;;;;;27.05;16.27;;;231.20;2150.40;;;;;;5113205;28;20034;-80
2020/12/05 21:37:17;;;;;;;22.73;15.18;;;231.20;2124.80;;;;;;5112256;28;21659;-79
2020/12/05 21:39:43;;;;;;;24.08;16.17;;;231.20;2124.80;;;;;;5108738;28;20023;-79
2020/12/05 21:42:09;;;;;;;26.88;18.17;;;231.20;2124.80;;;;;;5111775;28;20036;-80
2020/12/05 21:44:35;;;;;;;23.42;15.13;;;231.20;2124.80;;;;;;5113272;28;20454;-80
2020/12/05 21:47:00;;;;;;;24.52;15.60;;;231.10;2150.40;;;;;;5113782;28;20027;-78
2020/12/05 21:49:26;;;;;;;22.13;14.60;;;231.20;2124.80;;;;;;5113991;28;20027;-81
2020/12/05 21:51:52;;;;;;;21.70;14.90;;;231.20;2124.80;;;;;;5115212;28;20093;-80
2020/12/05 21:54:18;;;;;;;23.08;14.63;;;231.20;2124.80;;;;;;5112863;28;20027;-81
2020/12/05 21:56:49;;;;;;;21.85;14.45;;;231.20;2124.80;;;;;;5113561;28;20044;-80
2020/12/05 21:59:15;;;;;;;21.13;13.38;;;231.20;2124.80;;;;;;5115230;28;20120;-80
2020/12/05 22:01:41;;;;;;;23.67;13.52;;;231.20;2124.80;;;;;;5112752;28;20485;-82
2020/12/05 22:04:08;;;;;;;19.58;13.18;;;231.20;2124.80;;;;;;5113764;28;20038;-80
2020/12/05 22:06:34;;;;;;;16.63;12.00;;;231.20;2124.80;;;;;;5113046;28;20023;-78
2020/12/05 22:08:59;;;;;;;18.40;12.25;;;231.30;2124.80;;;;;;5112264;28;20038;-80
2020/12/05 22:11:25;;;;;;;16.50;12.07;;;231.30;2099.20;;;;;;5111913;28;20028;-78
2020/12/05 22:14:09;;;;;;;18.25;11.82;;;231.30;2099.20;;;;;;5114855;28;20106;-80
2020/12/05 22:16:35;;;;;;;17.10;10.95;;;231.30;2099.20;;;;;;5114492;28;20073;-77
2020/12/05 22:19:01;;;;;;;17.15;10.68;;;231.30;2099.20;;;;;;5112695;28;20027;-80
2020/12/05 22:21:26;;;;;;;17.65;11.63;;;231.30;2099.20;;;;;;5113873;28;20385;-80
2020/12/05 22:23:53;;;;;;;15.38;10.85;;;231.30;2099.20;;;;;;5111965;28;20028;-79
2020/12/05 22:26:18;;;;;;;20.27;11.93;;;231.20;2124.80;;;;;;5114423;28;20023;-77
2020/12/05 22:28:44;;;;;;;21.63;11.43;;;231.30;2099.20;;;;;;5114181;28;20045;-79
2020/12/05 22:31:11;;;;;;;16.27;11.00;;;231.20;2124.80;;;;;;5113966;28;20016;-79
2020/12/05 22:33:37;;;;;;;15.70;10.90;;;231.20;2099.20;;;;;;5114343;28;20030;-77
2020/12/05 22:36:07;;;;;;;19.42;11.32;;;231.20;2099.20;;;;;;5112532;28;20023;-79
2020/12/05 22:38:33;;;;;;;18.92;11.80;;;231.20;2124.80;;;;;;5112576;28;20031;-78
2020/12/05 22:40:59;;;;;;;14.98;10.23;;;231.20;2124.80;;;;;;5112663;28;20040;-79
2020/12/05 22:43:25;;;;;;;13.95;10.77;;;231.20;2099.20;;;;;;5111936;28;20111;-76
2020/12/05 22:45:50;;;;;;;17.58;11.63;;;231.20;2124.80;;;;;;5112866;28;20383;-79
2020/12/05 22:48:16;;;;;;;15.85;10.82;;;231.20;2124.80;;;;;;5110377;28;20039;-81
2020/12/05 22:50:42;;;;;;;15.63;10.45;;;231.10;2124.80;;;;;;5117392;28;20130;-80
2020/12/05 22:53:07;;;;;;;17.67;10.38;;;231.10;2124.80;;;;;;5112054;28;20503;-80
2020/12/05 22:55:33;;;;;;;18.48;10.57;;;231.10;2124.80;;;;;;5115238;28;20028;-77
2020/12/05 22:58:14;;;;;;;15.75;10.32;;;231.00;2124.80;;;;;;5114498;28;20117;-77
2020/12/05 23:00:51;;;;;;;14.75;10.43;;;231.10;2124.80;;;;;;5115049;28;20129;-79
2020/12/05 23:03:17;;;;;;;13.77;9.80;;;231.10;2124.80;;;;;;5107622;28;20043;-75
2020/12/05 23:05:42;;;;;;;16.33;11.20;;;231.10;2124.80;;;;;;5116442;28;20027;-80
2020/12/05 23:08:09;;;;;;;17.38;11.63;;;231.10;2124.80;;;;;;5117170;28;20096;-81
2020/12/05 23:10:35;;;;;;;15.10;10.20;;;231.10;2124.80;;;;;;5110811;28;20489;-81
2020/12/05 23:13:01;;;;;;;15.23;10.77;;;231.10;2124.80;;;;;;5116623;28;20028;-78
2020/12/05 23:15:28;;;;;;;16.30;10.75;;;231.10;2124.80;;;;;;5117441;28;20102;-79
2020/12/05 23:17:53;;;;;;;17.95;11.02;;;231.10;2124.80;;;;;;5115684;28;20081;-78
2020/12/05 23:20:19;;;;;;;19.17;11.02;;;231.10;2124.80;;;;;;5117007;28;20019;-78
2020/12/05 23:22:47;;;;;;;14.88;10.50;;;231.00;2124.80;;;;;;5117042;28;20035;-79
2020/12/05 23:25:13;;;;;;;16.30;10.63;;;231.10;2124.80;;;;;;5117498;28;20035;-79
2020/12/05 23:27:58;;;;;;;14.98;10.10;;;231.10;2124.80;;;;;;5115723;28;20500;-78
2020/12/05 23:35:19;;;;;;;16.98;11.27;;;231.00;2124.80;;;;;;5117500;28;20428;-79
2020/12/05 23:37:44;;;;;;;17.63;10.73;;;231.00;2124.80;;;;;;5115989;28;20023;-78
2020/12/05 23:40:10;;;;;;;18.17;11.63;;;231.00;2124.80;;;;;;5117473;28;20015;-79
2020/12/05 23:42:36;;;;;;;17.83;11.55;;;231.00;2124.80;;;;;;5116878;28;20040;-80
2020/12/05 23:45:05;;;;;;;19.40;12.32;;;231.00;2124.80;;;;;;5116351;28;20030;-79
2020/12/05 23:47:31;;;;;;;19.38;11.10;;;231.00;2124.80;;;;;;5116999;28;20114;-79
2020/12/05 23:49:57;;;;;;;16.20;11.30;;;231.00;2124.80;;;;;;5116960;28;20100;-78
2020/12/05 23:52:22;;;;;;;16.00;11.25;;;231.00;2124.80;;;;;;5116935;28;20030;-78
2020/12/05 23:54:48;;;;;;;18.23;12.07;;;231.00;2124.80;;;;;;5116292;28;20032;-79
